createdAt,value
2023-01-25T00:03:05.858Z,103313.05
2023-01-25T00:09:28.867Z,103311.77
2023-01-25T00:12:21.584Z,103310.38
2023-01-25T00:15:13.032Z,103309.52
2023-01-25T00:18:06.662Z,103302.92
2023-01-25T00:20:57.076Z,103295.15
2023-01-25T00:24:11.857Z,103298.23
2023-01-25T00:27:03.001Z,103291.54
2023-01-25T00:30:11.873Z,103291.94
2023-01-25T00:36:52.727Z,103294.77
2023-01-25T00:39:43.243Z,103293.45
2023-01-25T00:51:19.832Z,103282.80
2023-01-25T00:54:10.425Z,103284.58
2023-01-25T01:01:23.536Z,103283.92
2023-01-25T01:04:15.654Z,103284.92
2023-01-25T01:07:06.476Z,103283.20
2023-01-25T01:09:57.000Z,103279.88
2023-01-25T01:12:50.519Z,103281.02
2023-01-25T01:15:40.852Z,103287.00
2023-01-25T01:19:05.116Z,103289.06
2023-01-25T01:21:55.627Z,103288.98
2023-01-25T01:24:48.737Z,103292.21
2023-01-25T01:27:39.231Z,103292.62
2023-01-25T01:30:30.565Z,103297.34
2023-01-25T01:33:21.278Z,103297.73
2023-01-25T01:36:23.599Z,103300.65
2023-01-25T01:39:14.262Z,103305.45
2023-01-25T01:42:12.565Z,103301.05
2023-01-25T01:45:04.057Z,103300.84
2023-01-25T01:47:54.773Z,103301.74
2023-01-25T01:50:45.927Z,103301.94
2023-01-25T01:53:37.280Z,103295.02
2023-01-25T01:56:32.155Z,103287.17
2023-01-25T01:59:43.267Z,103288.48
2023-01-25T02:02:33.707Z,103285.59
2023-01-25T02:05:27.327Z,103286.44
2023-01-25T02:08:18.151Z,103282.66
2023-01-25T02:11:40.292Z,103280.96
2023-01-25T02:14:30.857Z,103274.70
2023-01-25T02:17:32.433Z,103272.11
2023-01-25T02:20:27.465Z,103270.35
2023-01-25T02:23:41.181Z,103266.16
2023-01-25T02:26:50.473Z,103262.51
2023-01-25T02:29:42.261Z,103266.62
2023-01-25T02:32:34.829Z,103274.84
2023-01-25T02:35:26.091Z,103275.02
2023-01-25T02:38:24.569Z,103272.34
2023-01-25T02:41:18.820Z,103273.39
2023-01-25T02:44:15.154Z,103270.20
2023-01-25T02:47:05.852Z,103266.52
2023-01-25T02:49:57.608Z,103263.91
2023-01-25T02:52:48.236Z,103264.30
2023-01-25T02:55:40.688Z,103264.27
2023-01-25T02:58:32.063Z,103261.39
2023-01-25T03:01:26.797Z,103256.16
2023-01-25T03:04:18.543Z,103255.20
2023-01-25T03:07:50.943Z,103252.34
2023-01-25T03:10:41.564Z,103255.26
2023-01-25T03:18:14.533Z,103254.94
2023-01-25T03:21:09.828Z,103255.16
2023-01-25T03:24:38.653Z,103250.73
2023-01-25T03:27:31.957Z,103255.02
2023-01-25T03:31:23.210Z,103256.65
2023-01-25T03:34:14.769Z,103261.09
2023-01-25T03:37:37.887Z,103261.38
2023-01-25T03:40:28.958Z,103265.60
2023-01-25T03:43:20.049Z,103264.14
2023-01-25T03:46:12.797Z,103262.03
2023-01-25T03:49:08.911Z,103261.54
2023-01-25T03:51:59.831Z,103263.13
2023-01-25T03:55:11.230Z,103261.02
2023-01-25T03:58:21.890Z,103259.20
2023-01-25T04:01:37.924Z,103255.31
2023-01-25T04:04:28.465Z,103257.70
2023-01-25T04:07:20.263Z,103253.99
2023-01-25T04:10:12.563Z,103251.92
2023-01-25T04:13:27.220Z,103252.59
2023-01-25T04:16:19.102Z,103250.91
2023-01-25T04:19:28.278Z,103254.76
2023-01-25T04:22:22.349Z,103252.73
2023-01-25T04:25:13.939Z,103248.21
2023-01-25T04:28:24.866Z,103242.77
2023-01-25T04:31:15.817Z,103243.77
2023-01-25T04:34:07.155Z,103247.98
2023-01-25T04:36:57.807Z,103243.29
2023-01-25T04:39:50.416Z,103237.02
2023-01-25T04:42:41.123Z,103233.78
2023-01-25T04:45:31.920Z,103233.08
2023-01-25T04:48:22.829Z,103233.29
2023-01-25T04:51:33.346Z,103230.00
2023-01-25T04:54:23.900Z,103225.98
2023-01-25T04:57:14.460Z,103225.47
2023-01-25T05:00:09.001Z,103223.92
2023-01-25T05:03:02.375Z,103214.89
2023-01-25T05:05:53.008Z,103214.70
2023-01-25T05:08:46.058Z,103214.59
2023-01-25T05:11:36.921Z,103217.42
2023-01-25T05:14:50.206Z,103218.46
2023-01-25T05:17:40.652Z,103215.27
2023-01-25T05:20:32.116Z,103209.22
2023-01-25T05:23:23.233Z,103201.56
2023-01-25T05:26:31.970Z,103201.23
2023-01-25T05:29:22.508Z,103202.65
2023-01-25T05:32:32.964Z,103196.85
2023-01-25T05:35:23.633Z,103191.50
2023-01-25T05:38:16.157Z,103183.55
2023-01-25T05:41:08.011Z,103175.00
2023-01-25T05:43:58.495Z,103169.86
2023-01-25T05:46:49.253Z,103166.14
2023-01-25T05:49:40.160Z,103165.30
2023-01-25T05:52:32.048Z,103159.94
2023-01-25T05:55:23.650Z,103157.27
2023-01-25T05:58:15.171Z,103150.66
2023-01-25T06:01:08.228Z,103147.95
2023-01-25T06:04:18.375Z,103143.28
2023-01-25T06:07:09.253Z,103146.30
2023-01-25T06:10:00.215Z,103142.16
2023-01-25T06:12:50.797Z,103138.20
2023-01-25T06:15:41.384Z,103136.97
2023-01-25T06:18:50.492Z,103141.08
2023-01-25T06:22:16.643Z,103143.13
2023-01-25T06:25:08.418Z,103148.38
2023-01-25T06:27:59.291Z,103159.54
2023-01-25T06:30:49.942Z,103166.75
2023-01-25T06:33:41.002Z,103169.48
2023-01-25T06:36:31.809Z,103177.08
2023-01-25T06:39:22.278Z,103187.46
2023-01-25T06:42:12.988Z,103184.27
2023-01-25T06:45:03.556Z,103181.10
2023-01-25T06:47:54.004Z,103175.93
2023-01-25T06:50:44.523Z,103176.52
2023-01-25T06:53:35.741Z,103172.35
2023-01-25T06:56:27.825Z,103169.42
2023-01-25T06:59:18.473Z,103166.86
2023-01-25T07:02:08.777Z,103159.16
2023-01-25T07:04:59.161Z,103157.86
2023-01-25T07:07:49.713Z,103153.69
2023-01-25T07:10:40.348Z,103142.92
2023-01-25T07:13:37.686Z,103146.08
2023-01-25T07:16:28.372Z,103137.54
2023-01-25T07:19:22.801Z,103128.02
2023-01-25T07:22:13.406Z,103112.40
2023-01-25T07:25:15.369Z,103108.12
2023-01-25T07:28:06.164Z,103102.20
2023-01-25T07:31:21.108Z,103090.29
2023-01-25T07:34:13.229Z,103081.16
2023-01-25T07:37:10.390Z,103072.42
2023-01-25T07:40:00.893Z,103070.95
2023-01-25T07:42:51.918Z,103068.91
2023-01-25T07:45:45.649Z,103070.40
2023-01-25T07:48:36.174Z,103076.31
2023-01-25T07:51:28.068Z,103079.19
2023-01-25T07:54:18.606Z,103076.38
2023-01-25T07:57:09.185Z,103070.33
2023-01-25T07:59:59.788Z,103058.67
2023-01-25T08:02:52.728Z,103057.47
2023-01-25T08:05:46.760Z,103050.63
2023-01-25T08:08:38.401Z,103052.52
2023-01-25T08:11:30.553Z,103057.36
2023-01-25T08:14:22.266Z,103068.42
2023-01-25T08:17:13.416Z,103066.04
2023-01-25T08:20:04.697Z,103065.36
2023-01-25T08:22:57.849Z,103061.05
2023-01-25T08:25:48.338Z,103056.11
2023-01-25T08:28:38.723Z,103063.77
2023-01-25T08:31:30.260Z,103070.83
2023-01-25T08:34:20.629Z,103075.79
2023-01-25T08:37:11.212Z,103080.79
2023-01-25T08:40:03.879Z,103090.22
2023-01-25T08:42:54.461Z,103087.94
2023-01-25T08:45:44.914Z,103079.61
2023-01-25T08:48:39.800Z,103075.20
2023-01-25T08:51:31.633Z,103074.52
2023-01-25T08:54:22.228Z,103060.52
2023-01-25T08:57:12.777Z,103056.65
2023-01-25T09:00:03.530Z,103039.94
2023-01-25T09:02:54.133Z,103022.27
2023-01-25T09:05:44.601Z,103020.94
2023-01-25T09:08:35.211Z,103019.97
2023-01-25T09:11:25.742Z,103018.60
2023-01-25T09:14:16.143Z,103029.63
2023-01-25T09:17:06.624Z,103035.11
2023-01-25T09:19:56.981Z,103032.45
2023-01-25T09:22:47.697Z,103031.84
2023-01-25T09:25:38.163Z,103036.13
2023-01-25T09:28:30.203Z,103050.14
2023-01-25T09:31:23.418Z,103060.70
2023-01-25T09:34:34.555Z,103085.95
2023-01-25T09:37:25.141Z,103078.92
2023-01-25T09:40:20.519Z,103075.63
2023-01-25T09:43:18.821Z,103064.46
2023-01-25T09:46:48.018Z,103051.11
2023-01-25T09:49:46.487Z,103034.38
2023-01-25T09:52:51.089Z,103034.88
2023-01-25T09:55:41.658Z,103053.52
2023-01-25T09:58:36.041Z,103066.69
2023-01-25T10:01:39.068Z,103060.76
2023-01-25T10:04:32.083Z,103052.18
2023-01-25T10:07:26.621Z,103038.47
2023-01-25T10:10:20.005Z,103030.23
2023-01-25T10:13:12.738Z,103029.58
2023-01-25T10:16:09.917Z,103021.92
2023-01-25T10:19:08.157Z,103015.80
2023-01-25T10:22:02.061Z,103017.38
2023-01-25T10:25:05.953Z,103028.33
2023-01-25T10:28:01.474Z,103036.48
2023-01-25T10:30:56.376Z,103049.39
2023-01-25T10:33:47.790Z,103056.06
2023-01-25T10:36:38.387Z,103068.27
2023-01-25T10:39:31.634Z,103077.98
2023-01-25T10:42:23.736Z,103074.41
2023-01-25T10:45:17.471Z,103080.29
2023-01-25T10:48:12.278Z,103086.54
2023-01-25T10:51:02.578Z,103082.45
2023-01-25T10:54:30.339Z,103076.42
2023-01-25T10:57:22.278Z,103079.83
2023-01-25T11:00:21.750Z,103076.90
2023-01-25T11:03:34.057Z,103080.92
2023-01-25T11:06:32.704Z,103079.55
2023-01-25T11:09:34.173Z,103084.98
2023-01-25T11:12:26.785Z,103082.21
2023-01-25T11:15:26.720Z,103084.14
2023-01-25T11:18:20.003Z,103085.19
2023-01-25T11:21:15.024Z,103083.41
2023-01-25T11:24:22.643Z,103080.70
2023-01-25T11:27:21.505Z,103088.00
2023-01-25T11:30:13.899Z,103084.25
2023-01-25T11:33:04.436Z,103088.30
2023-01-25T11:36:14.063Z,103088.56
2023-01-25T11:39:34.869Z,103094.41
2023-01-25T11:42:32.168Z,103099.52
2023-01-25T11:45:35.781Z,103112.97
2023-01-25T11:48:30.358Z,103115.56
2023-01-25T11:51:26.643Z,103113.23
2023-01-25T11:54:30.568Z,103121.79
2023-01-25T11:58:01.877Z,103127.20
2023-01-25T12:01:00.137Z,103124.21
2023-01-25T12:04:07.635Z,103118.14
2023-01-25T12:07:04.541Z,103119.38
2023-01-25T12:10:01.191Z,103117.14
2023-01-25T12:12:57.059Z,103117.28
2023-01-25T12:16:01.276Z,103117.70
2023-01-25T12:19:41.239Z,103123.03
2023-01-25T12:22:55.181Z,103119.39
2023-01-25T12:25:53.894Z,103109.30
2023-01-25T12:28:47.048Z,103108.65
2023-01-25T12:31:43.836Z,103111.27
2023-01-25T12:34:37.213Z,103117.16
2023-01-25T12:37:31.476Z,103122.11
2023-01-25T12:40:27.297Z,103111.41
2023-01-25T12:43:22.488Z,103102.73
2023-01-25T12:46:16.087Z,103094.16
2023-01-25T12:49:09.433Z,103092.27
2023-01-25T12:52:02.464Z,103089.93
2023-01-25T12:54:56.917Z,103087.92
2023-01-25T12:57:52.724Z,103084.20
2023-01-25T13:00:48.788Z,103081.33
2023-01-25T13:03:42.029Z,103077.35
2023-01-25T13:06:38.762Z,103074.60
2023-01-25T13:09:32.099Z,103077.04
2023-01-25T13:12:24.762Z,103089.76
2023-01-25T13:15:28.308Z,103091.38
2023-01-25T13:18:39.238Z,103089.59
2023-01-25T13:21:45.162Z,103090.00
2023-01-25T13:24:36.559Z,103090.30
2023-01-25T13:27:27.965Z,103079.01
2023-01-25T13:30:34.875Z,103075.33
2023-01-25T13:33:36.073Z,103073.23
2023-01-25T13:36:47.539Z,103073.94
2023-01-25T13:39:45.421Z,103078.06
2023-01-25T13:42:36.462Z,103076.61
2023-01-25T13:45:27.792Z,103078.11
2023-01-25T13:48:21.626Z,103077.80
2023-01-25T13:51:15.432Z,103077.76
2023-01-25T13:54:05.992Z,103074.89
2023-01-25T13:57:06.322Z,103072.48
2023-01-25T14:00:12.005Z,103073.45
2023-01-25T14:03:06.643Z,103070.43
2023-01-25T14:05:58.372Z,103071.06
2023-01-25T14:08:50.424Z,103083.54
2023-01-25T14:11:45.944Z,103074.96
2023-01-25T14:14:36.857Z,103071.55
2023-01-25T14:17:27.442Z,103072.51
2023-01-25T14:20:24.808Z,103073.39
2023-01-25T14:23:26.649Z,103080.41
2023-01-25T14:26:25.149Z,103077.12
2023-01-25T14:29:35.158Z,103085.34
2023-01-25T14:32:27.440Z,103090.94
2023-01-25T14:35:49.312Z,103091.70
2023-01-25T14:38:44.676Z,103089.23
2023-01-25T14:41:36.014Z,103093.00
2023-01-25T14:44:26.676Z,103096.17
2023-01-25T14:47:24.100Z,103098.00
2023-01-25T14:50:31.829Z,103102.54
2023-01-25T14:53:24.726Z,103108.32
2023-01-25T14:56:29.196Z,103109.92
2023-01-25T14:59:30.146Z,103109.59
2023-01-25T15:02:33.124Z,103107.07
2023-01-25T15:05:25.205Z,103110.45
2023-01-25T15:08:28.559Z,103109.83
2023-01-25T15:11:45.656Z,103116.64
2023-01-25T15:14:48.257Z,103122.52
2023-01-25T15:17:43.328Z,103129.35
2023-01-25T15:20:36.001Z,103137.24
2023-01-25T15:23:27.539Z,103134.79
2023-01-25T15:26:19.633Z,103137.00
2023-01-25T15:29:13.927Z,103141.98
2023-01-25T15:32:04.331Z,103144.77
2023-01-25T15:34:54.669Z,103148.47
2023-01-25T15:37:45.005Z,103149.36
2023-01-25T15:40:35.146Z,103152.84
2023-01-25T15:43:25.830Z,103148.65
2023-01-25T15:46:19.632Z,103148.73
2023-01-25T15:49:15.261Z,103145.13
2023-01-25T15:52:06.232Z,103148.13
2023-01-25T15:55:01.670Z,103147.27
2023-01-25T15:57:52.686Z,103149.40
2023-01-25T16:00:44.885Z,103150.44
2023-01-25T16:03:35.386Z,103152.07
2023-01-25T16:06:33.494Z,103152.57
2023-01-25T16:09:26.544Z,103151.79
2023-01-25T16:12:20.169Z,103149.54
2023-01-25T16:15:12.092Z,103146.92
2023-01-25T16:18:03.303Z,103149.34
2023-01-25T16:20:53.876Z,103153.75
2023-01-25T16:23:44.341Z,103169.19
2023-01-25T16:26:35.216Z,103174.91
2023-01-25T16:29:26.091Z,103170.52
2023-01-25T16:32:16.535Z,103175.00
2023-01-25T16:35:07.535Z,103171.89
2023-01-25T16:37:58.172Z,103170.73
2023-01-25T16:40:48.674Z,103175.38
2023-01-25T16:43:42.893Z,103184.95
2023-01-25T16:46:33.632Z,103184.00
2023-01-25T16:49:26.502Z,103180.21
2023-01-25T16:52:17.011Z,103185.81
2023-01-25T16:55:08.368Z,103187.96
2023-01-25T16:57:58.839Z,103183.54
2023-01-25T17:00:49.355Z,103186.00
2023-01-25T17:03:40.022Z,103191.33
2023-01-25T17:06:31.374Z,103196.72
2023-01-25T17:09:24.863Z,103192.24
2023-01-25T17:12:16.104Z,103190.09
2023-01-25T17:15:07.174Z,103188.80
2023-01-25T17:17:57.749Z,103191.39
2023-01-25T17:20:48.337Z,103200.34
2023-01-25T17:23:41.559Z,103208.54
2023-01-25T17:26:33.241Z,103216.52
2023-01-25T17:29:24.379Z,103222.45
2023-01-25T17:32:14.844Z,103226.95
2023-01-25T17:35:05.351Z,103239.58
2023-01-25T17:37:57.456Z,103240.29
2023-01-25T17:40:47.993Z,103237.35
2023-01-25T17:43:38.958Z,103230.50
2023-01-25T17:46:32.481Z,103225.95
2023-01-25T17:49:25.144Z,103222.48
2023-01-25T17:52:15.433Z,103218.50
2023-01-25T17:55:13.497Z,103212.64
2023-01-25T17:58:04.088Z,103219.24
2023-01-25T18:01:02.116Z,103223.38
2023-01-25T18:04:02.397Z,103234.80
2023-01-25T18:06:53.148Z,103241.64
2023-01-25T18:09:43.626Z,103240.09
2023-01-25T18:12:34.015Z,103243.09
2023-01-25T18:15:24.315Z,103249.96
2023-01-25T18:18:14.473Z,103250.02
2023-01-25T18:21:06.352Z,103255.02
2023-01-25T18:23:57.880Z,103259.48
2023-01-25T18:26:48.311Z,103265.35
2023-01-25T18:29:46.500Z,103254.80
2023-01-25T18:32:36.905Z,103253.63
2023-01-25T18:35:27.259Z,103251.98
2023-01-25T18:38:17.717Z,103256.73
2023-01-25T18:41:08.949Z,103246.88
2023-01-25T18:43:59.044Z,103241.30
2023-01-25T18:46:49.233Z,103240.84
2023-01-25T18:49:40.774Z,103258.80
2023-01-25T18:52:31.194Z,103270.90
2023-01-25T18:55:21.531Z,103275.91
2023-01-25T18:58:13.151Z,103278.42
2023-01-25T19:01:06.634Z,103282.48
2023-01-25T19:03:56.847Z,103277.75
2023-01-25T19:06:53.792Z,103267.77
2023-01-25T19:09:44.725Z,103260.19
2023-01-25T19:12:35.094Z,103262.39
2023-01-25T19:15:25.428Z,103271.16
2023-01-25T19:18:15.844Z,103277.23
2023-01-25T19:21:09.558Z,103290.20
2023-01-25T19:24:01.023Z,103297.13
2023-01-25T19:26:52.418Z,103300.38
2023-01-25T19:29:43.041Z,103291.29
2023-01-25T19:32:33.446Z,103273.31
2023-01-25T19:35:23.884Z,103259.51
2023-01-25T19:38:14.314Z,103255.75
2023-01-25T19:41:08.409Z,103260.60
2023-01-25T19:44:00.083Z,103270.20
2023-01-25T19:46:50.704Z,103285.94
2023-01-25T19:49:41.201Z,103305.77
2023-01-25T19:52:31.749Z,103312.48
2023-01-25T19:55:22.289Z,103311.59
2023-01-25T19:58:12.889Z,103308.05
2023-01-25T20:01:10.580Z,103300.14
2023-01-25T20:04:02.325Z,103286.02
2023-01-25T20:06:53.188Z,103268.02
2023-01-25T20:09:43.769Z,103249.52
2023-01-25T20:12:34.277Z,103244.83
2023-01-25T20:15:24.770Z,103239.97
2023-01-25T20:18:15.339Z,103245.55
2023-01-25T20:21:06.616Z,103247.40
2023-01-25T20:24:04.158Z,103252.56
2023-01-25T20:26:55.002Z,103260.08
2023-01-25T20:29:45.421Z,103263.50
2023-01-25T20:32:37.101Z,103278.77
2023-01-25T20:35:27.626Z,103285.88
2023-01-25T20:38:18.230Z,103294.92
2023-01-25T20:41:09.716Z,103303.63
2023-01-25T20:44:02.149Z,103310.95
2023-01-25T20:46:53.168Z,103310.49
2023-01-25T20:49:46.517Z,103301.06
2023-01-25T20:52:38.264Z,103288.49
2023-01-25T20:55:28.725Z,103275.93
2023-01-25T20:58:19.074Z,103270.63
2023-01-25T21:01:14.023Z,103267.52
2023-01-25T21:04:04.659Z,103279.25
2023-01-25T21:06:56.344Z,103302.45
2023-01-25T21:09:46.734Z,103306.02
2023-01-25T21:12:37.069Z,103300.91
2023-01-25T21:15:27.517Z,103300.08
2023-01-25T21:18:18.040Z,103314.21
2023-01-25T21:21:09.190Z,103324.63
2023-01-25T21:24:02.780Z,103317.52
2023-01-25T21:26:54.365Z,103308.31
2023-01-25T21:29:45.131Z,103318.64
2023-01-25T21:32:35.704Z,103334.73
2023-01-25T21:35:26.617Z,103335.76
2023-01-25T21:38:17.797Z,103322.05
2023-01-25T21:41:11.045Z,103307.47
2023-01-25T21:44:19.807Z,103304.02
2023-01-25T21:50:38.381Z,103302.59
2023-01-25T21:53:28.822Z,103300.13
2023-01-25T21:56:19.272Z,103301.55
2023-01-25T21:59:09.750Z,103313.17
2023-01-25T22:02:01.522Z,103328.35
2023-01-25T22:04:51.911Z,103342.08
2023-01-25T22:07:42.338Z,103350.37
2023-01-25T22:10:32.828Z,103354.67
2023-01-25T22:13:23.309Z,103349.30
2023-01-25T22:16:14.035Z,103332.27
2023-01-25T22:19:05.138Z,103320.57
2023-01-25T22:21:55.566Z,103321.40
2023-01-25T22:24:46.249Z,103333.17
2023-01-25T22:27:47.014Z,103346.70
2023-01-25T22:30:37.078Z,103357.68
2023-01-25T22:33:27.542Z,103369.98
2023-01-25T22:36:19.417Z,103371.32
2023-01-25T22:39:13.524Z,103370.90
2023-01-25T22:42:08.499Z,103361.69
2023-01-25T22:44:58.993Z,103355.46
2023-01-25T22:47:49.477Z,103358.07
2023-01-25T22:50:41.059Z,103360.48
2023-01-25T22:53:32.411Z,103355.79
2023-01-25T22:56:23.707Z,103348.04
2023-01-25T22:59:19.134Z,103355.83
2023-01-25T23:02:10.294Z,103362.32
2023-01-25T23:05:00.495Z,103356.61
2023-01-25T23:07:51.215Z,103353.34
2023-01-25T23:10:41.645Z,103353.96
2023-01-25T23:13:32.093Z,103350.94
2023-01-25T23:16:22.851Z,103358.97
2023-01-25T23:19:14.730Z,103370.71
2023-01-25T23:22:05.585Z,103373.06
2023-01-25T23:24:58.209Z,103368.83
2023-01-25T23:27:49.195Z,103370.64
2023-01-25T23:30:39.600Z,103370.33
2023-01-25T23:33:30.703Z,103369.04
2023-01-25T23:36:21.951Z,103364.91
2023-01-25T23:39:16.131Z,103355.90
2023-01-25T23:42:06.633Z,103353.95
2023-01-25T23:44:57.274Z,103358.59
2023-01-25T23:47:47.596Z,103363.59
2023-01-25T23:50:38.156Z,103364.50
2023-01-25T23:53:28.802Z,103366.79
2023-01-25T23:56:20.642Z,103364.64
2023-01-25T23:59:12.305Z,103363.69
